Terminal Aerodrome Forecast
Issued by NWS Huntsville, AL

Home | Current Version | Previous Version | Text Only | Print | Product List | Glossary On
Versions: 1 2 3 4 5 6 7 8 9 10 11 12 13 14 15 16 17 18 19 20 21 22 23 24 25 26 27 28 29 30 31 32 33 34 35 36 37 38
912
FTUS44 KHUN 270753 AAB
TAFMSL
TAF AMD
KMSL 270753Z 2708/2806 33004KT 3SM BR SCT001 BKN005
      TEMPO 2708/2712 1/4SM FG VV002
     FM271200 33005KT 3SM BR SCT005 BKN025
     FM271400 32006KT P6SM FEW025 FEW150 SCT250
     FM271700 30008G18KT P6SM BKN050
     FM272300 28006KT P6SM SCT050 SCT250=

USA.gov is the U.S. government's official web portal to all federal, state and local government web resources and services.